Forside
METAR-TAF:

METAR-TAF

Lufthavne :

Provo Municipal Airport

Provo, Utah, USA

Breddekreds: 40-13N, længdekreds: 111-43W, højde: 1369 m

Aktuelle vejr

Denne rapport blev lavet for 32 minutter siden, kl. 07:56 UTC
Vind stille
Temperatur -1°C
Fugtighed 86%
Tryk 1023 hPa
Sigt: 16.1 km
skyfri

METAR: KPVU 220756Z AUTO 00000KT 10SM CLR M01/M03 A3022 RMK AO2 SLP244 T10061028 FZRANO

Tid: 01:28 (08:28 UTC)

Vejrudsigter

Denne rapport blev lavet for 2 timer og 53 minutter siden, kl. 05:35 UTC
Foreløbig gælder fra 22 på 06 UTC til 23 på 06 UTC
Vind 4 kt fra varierende retninger
Sigt: 10 km
Spredte skyer i en højde af 18000 ft
Fra 22 på 1200 UTC
Vind 5 kt fra nordnordvest
Sigt: 10 km
Brudte skyer i en højde af 10000 ft

TAF: KPVU 220535Z 2206/2306 VRB04KT P6SM SCT180 FM221200 34005KT P6SM BKN100

Vejrobservationer og prognoser fra mere end 4000 lufthavne (METAR og TAF).

De gule og røde prikker repræsenterer de meteorologiske stationer.

Flyt musen over at se navnet på stationen.

Så klik over at se vejr observationer og prognoser.

At skifte det kort: Klik på de grønne knapper med et sort kors for at zoome ind; på den grønne knap med en bindestreg for at zoome ud; eller på de grønne pile for tilstødende kort.


METAR-TAF: